Canton, Michigan
Current Conditions -  °F | °C
As of 8:05 AM on Tuesday 21 Oct 2014 (Local Time) from KYIP Reporting Station
Overcast Overcast  
Wind Chill: 50°   Ceiling: 1500
Heat Index: 50°   Visibility: 10mi
Dew Point: 44°   Wind: 12mph
Humidity: 80%   Direction: 330°NNW
Pressure: 29.97"   Gusts: NA
Location:  42.3°N, 83.49°W
Report Text: KYIP 211205Z AUTO 33010KT 10SM SCT009 BKN015 OVC020 10/07 A2997 RMK AO2 T01000067 TSNO
Loading
Personal Weather Stations






























Interactive Weather Map
Tropical Storm Tracking
New forecast layout! Learn more

10-Day Weather Forecast

Advertisements
Track Severe Weather on mobile